createdAt,value
2023-02-27T00:00:51.733Z,-1.00
2023-02-27T00:03:18.856Z,-1.10
2023-02-27T00:05:45.555Z,-1.00
2023-02-27T00:08:12.682Z,-1.00
2023-02-27T00:10:39.391Z,-1.00
2023-02-27T00:13:06.104Z,-1.10
2023-02-27T00:15:32.812Z,-0.90
2023-02-27T00:18:00.132Z,-0.90
2023-02-27T00:20:27.274Z,-1.10
2023-02-27T00:22:53.952Z,-1.00
2023-02-27T00:25:20.724Z,-1.00
2023-02-27T00:27:47.613Z,-1.00
2023-02-27T00:30:16.108Z,-1.10
2023-02-27T00:32:43.476Z,-0.70
2023-02-27T00:35:11.845Z,-1.10
2023-02-27T00:37:39.207Z,-0.40
2023-02-27T00:40:12.542Z,-1.20
2023-02-27T00:42:39.310Z,-1.20
2023-02-27T00:45:09.753Z,-1.00
2023-02-27T00:47:36.654Z,-1.10
2023-02-27T00:50:04.044Z,-1.10
2023-02-27T00:52:30.769Z,-1.10
2023-02-27T00:54:57.660Z,-1.10
2023-02-27T00:57:24.373Z,-1.10
2023-02-27T00:59:51.014Z,-1.10
2023-02-27T01:02:18.295Z,-1.00
2023-02-27T01:04:44.932Z,-1.30
2023-02-27T01:07:11.632Z,-1.30
2023-02-27T01:09:38.312Z,-1.30
2023-02-27T01:12:05.062Z,-1.30
2023-02-27T01:14:31.731Z,-1.30
2023-02-27T01:16:58.384Z,-1.20
2023-02-27T01:19:25.702Z,-1.30
2023-02-27T01:21:52.662Z,-1.30
2023-02-27T01:24:19.816Z,-1.30
2023-02-27T01:26:47.573Z,-1.30
2023-02-27T01:29:15.522Z,-1.40
2023-02-27T01:31:42.379Z,-1.30
2023-02-27T01:34:09.233Z,-1.30
2023-02-27T01:36:36.012Z,-1.30
2023-02-27T01:39:02.982Z,-1.40
2023-02-27T01:41:29.801Z,-1.40
2023-02-27T01:44:03.510Z,-1.30
2023-02-27T01:46:31.941Z,-1.40
2023-02-27T01:49:07.125Z,-1.40
2023-02-27T01:51:37.851Z,-1.60
2023-02-27T01:54:07.206Z,-1.40
2023-02-27T01:56:34.097Z,-1.30
2023-02-27T01:59:04.200Z,-1.40
2023-02-27T02:01:33.278Z,-1.40
2023-02-27T02:04:21.783Z,-1.50
2023-02-27T02:06:53.866Z,-1.40
2023-02-27T02:09:22.362Z,-1.50
2023-02-27T02:11:49.355Z,-1.50
2023-02-27T02:14:16.094Z,-1.50
2023-02-27T02:17:08.736Z,-1.50
2023-02-27T02:19:47.409Z,-1.60
2023-02-27T02:22:33.810Z,-1.60
2023-02-27T02:25:25.168Z,-1.50
2023-02-27T02:28:12.149Z,-1.50
2023-02-27T02:31:09.658Z,-1.60
2023-02-27T02:34:07.842Z,-1.50
2023-02-27T02:37:05.696Z,-1.60
2023-02-27T02:39:35.103Z,-1.60
2023-02-27T02:42:10.292Z,-1.70
2023-02-27T02:44:47.637Z,-1.50
2023-02-27T02:47:22.917Z,-1.60
2023-02-27T02:50:02.821Z,-1.50
2023-02-27T02:53:03.859Z,-1.70
2023-02-27T02:55:41.252Z,-1.70
2023-02-27T02:58:35.313Z,-1.70
2023-02-27T03:01:18.995Z,-1.80
2023-02-27T03:03:58.612Z,-1.70
2023-02-27T03:06:32.452Z,-1.70
2023-02-27T03:09:07.196Z,-1.70
2023-02-27T03:11:39.136Z,-1.70
2023-02-27T03:14:24.170Z,-1.80
2023-02-27T03:16:54.350Z,-1.70
2023-02-27T03:19:27.593Z,-1.70
2023-02-27T03:22:15.142Z,-1.80
2023-02-27T03:24:47.286Z,-1.70
2023-02-27T03:27:17.246Z,-1.70
2023-02-27T03:30:02.709Z,-1.90
2023-02-27T03:32:31.575Z,-1.70
2023-02-27T03:34:58.426Z,-1.80
2023-02-27T03:37:30.833Z,-1.90
2023-02-27T03:40:06.813Z,-2.00
2023-02-27T03:42:44.076Z,-2.00
2023-02-27T03:45:21.455Z,-2.00
2023-02-27T03:47:48.259Z,-2.00
2023-02-27T03:50:15.727Z,-2.00
2023-02-27T03:52:43.120Z,-1.90
2023-02-27T03:55:13.205Z,-1.90
2023-02-27T03:57:41.004Z,-1.90
2023-02-27T04:00:11.725Z,-1.90
2023-02-27T04:02:39.803Z,-1.90
2023-02-27T04:05:06.973Z,-2.10
2023-02-27T04:08:11.542Z,-2.00
2023-02-27T04:10:59.377Z,-2.00
2023-02-27T04:13:52.405Z,-2.10
2023-02-27T04:16:37.856Z,-2.00
2023-02-27T04:19:04.698Z,-2.00
2023-02-27T04:21:43.972Z,-2.00
2023-02-27T04:24:29.340Z,-2.00
2023-02-27T04:27:03.447Z,-1.90
2023-02-27T04:29:57.953Z,-2.10
2023-02-27T04:32:33.766Z,-2.00
2023-02-27T04:35:06.447Z,-2.00
2023-02-27T04:37:54.611Z,-2.10
2023-02-27T04:40:28.171Z,-2.10
2023-02-27T04:42:57.269Z,-2.20
2023-02-27T04:45:27.060Z,-2.10
2023-02-27T04:48:02.302Z,-2.10
2023-02-27T04:50:38.296Z,-2.10
2023-02-27T04:53:32.280Z,-2.10
2023-02-27T04:56:05.746Z,-2.30
2023-02-27T04:58:37.838Z,-2.20
2023-02-27T05:01:11.589Z,-2.20
2023-02-27T05:03:47.582Z,-2.10
2023-02-27T05:06:16.405Z,-2.10
2023-02-27T05:08:51.115Z,-2.20
2023-02-27T05:11:28.570Z,-2.20
2023-02-27T05:14:04.309Z,-2.20
2023-02-27T05:17:04.066Z,-2.20
2023-02-27T05:19:32.665Z,-2.10
2023-02-27T05:22:29.068Z,-2.20
2023-02-27T05:25:08.988Z,-2.10
2023-02-27T05:27:52.635Z,-2.20
2023-02-27T05:30:36.582Z,-2.20
2023-02-27T05:33:18.469Z,-2.20
2023-02-27T05:36:00.014Z,-2.20
2023-02-27T05:38:55.297Z,-2.20
2023-02-27T05:41:58.331Z,-2.20
2023-02-27T05:44:35.925Z,-2.20
2023-02-27T05:47:08.083Z,-2.20
2023-02-27T05:49:43.372Z,-2.10
2023-02-27T05:52:12.724Z,-2.20
2023-02-27T05:54:50.412Z,-2.20
2023-02-27T05:57:24.094Z,-2.30
2023-02-27T06:00:00.215Z,-2.30
2023-02-27T06:02:27.092Z,-2.50
2023-02-27T06:04:54.902Z,-2.40
2023-02-27T06:07:22.730Z,-2.40
2023-02-27T06:09:50.321Z,-2.40
2023-02-27T06:12:17.014Z,-2.30
2023-02-27T06:14:43.723Z,-2.40
2023-02-27T06:17:10.448Z,-2.50
2023-02-27T06:19:37.139Z,-2.50
2023-02-27T06:22:03.941Z,-2.40
2023-02-27T06:24:30.683Z,-2.50
2023-02-27T06:26:57.321Z,-2.50
2023-02-27T06:29:24.139Z,-2.40
2023-02-27T06:31:50.767Z,-2.00
2023-02-27T06:34:17.445Z,-2.30
2023-02-27T06:36:44.159Z,-2.30
2023-02-27T06:39:10.815Z,-2.30
2023-02-27T06:41:37.456Z,-2.30
2023-02-27T06:44:04.156Z,-2.30
2023-02-27T06:46:31.076Z,-2.30
2023-02-27T06:48:57.853Z,-2.40
2023-02-27T06:51:24.644Z,-2.40
2023-02-27T06:53:51.284Z,-2.40
2023-02-27T06:56:18.098Z,-2.30
2023-02-27T06:58:44.739Z,-2.30
2023-02-27T07:01:12.194Z,-2.30
2023-02-27T07:03:39.189Z,-2.20
2023-02-27T07:06:06.146Z,-2.10
2023-02-27T07:08:32.842Z,-2.20
2023-02-27T07:10:59.558Z,-2.20
2023-02-27T07:13:26.526Z,-2.00
2023-02-27T07:15:54.010Z,-2.00
2023-02-27T07:18:20.709Z,-1.50
2023-02-27T07:20:51.257Z,-2.00
2023-02-27T07:23:18.381Z,-1.00
2023-02-27T07:25:47.603Z,-0.20
2023-02-27T07:28:14.877Z,0.50
2023-02-27T07:30:41.641Z,0.10
2023-02-27T07:33:08.961Z,-0.50
2023-02-27T07:35:35.676Z,0.40
2023-02-27T07:38:02.549Z,1.10
2023-02-27T07:40:29.358Z,1.40
2023-02-27T07:42:56.075Z,1.60
2023-02-27T07:45:23.233Z,1.40
2023-02-27T07:47:49.991Z,1.30
2023-02-27T07:50:17.020Z,1.20
2023-02-27T07:52:44.788Z,2.50
2023-02-27T07:55:13.227Z,2.10
2023-02-27T07:57:40.418Z,1.20
2023-02-27T08:00:09.447Z,1.90
2023-02-27T08:02:36.373Z,2.50
2023-02-27T08:05:03.245Z,3.20
2023-02-27T08:07:29.947Z,3.00
2023-02-27T08:09:56.579Z,3.30
2023-02-27T08:12:23.429Z,3.00
2023-02-27T08:14:50.184Z,3.40
2023-02-27T08:17:16.948Z,1.40
2023-02-27T08:19:43.560Z,1.20
2023-02-27T08:22:10.588Z,1.90
2023-02-27T08:24:37.349Z,2.40
2023-02-27T08:27:04.068Z,2.60
2023-02-27T08:29:32.845Z,1.60
2023-02-27T08:32:00.815Z,2.70
2023-02-27T08:34:27.961Z,3.20
2023-02-27T08:36:54.705Z,3.40
2023-02-27T08:39:24.101Z,1.00
2023-02-27T08:41:52.692Z,2.20
2023-02-27T08:44:20.604Z,4.60
2023-02-27T08:46:47.370Z,2.30
2023-02-27T08:49:14.419Z,3.00
2023-02-27T08:51:41.143Z,5.70
2023-02-27T08:54:07.820Z,2.90
2023-02-27T08:56:34.829Z,2.90
2023-02-27T08:59:02.159Z,4.20
2023-02-27T09:01:34.190Z,3.70
2023-02-27T09:04:02.991Z,4.60
2023-02-27T09:06:31.276Z,4.20
2023-02-27T09:08:58.831Z,3.40
2023-02-27T09:11:26.948Z,4.60
2023-02-27T09:13:54.923Z,3.80
2023-02-27T09:16:23.130Z,2.70
2023-02-27T09:18:50.375Z,2.50
2023-02-27T09:21:17.625Z,5.00
2023-02-27T09:23:44.333Z,4.20
2023-02-27T09:26:11.010Z,4.90
2023-02-27T09:28:39.966Z,4.60
2023-02-27T09:31:07.892Z,5.70
2023-02-27T09:33:37.119Z,7.30
2023-02-27T09:36:05.809Z,7.30
2023-02-27T09:38:34.629Z,5.30
2023-02-27T09:41:02.334Z,4.80
2023-02-27T09:43:46.937Z,4.10
2023-02-27T09:46:22.625Z,4.40
2023-02-27T09:48:56.034Z,3.50
2023-02-27T09:51:23.449Z,4.60
2023-02-27T09:53:53.246Z,5.50
2023-02-27T09:56:36.238Z,4.60
2023-02-27T09:59:31.326Z,3.00
2023-02-27T10:02:09.039Z,4.60
2023-02-27T10:05:12.080Z,6.10
2023-02-27T10:07:41.106Z,4.40
2023-02-27T10:10:13.880Z,7.00
2023-02-27T10:12:46.882Z,4.70
2023-02-27T10:15:29.616Z,4.90
2023-02-27T10:18:25.997Z,5.20
2023-02-27T10:20:56.093Z,5.20
2023-02-27T10:23:50.887Z,4.80
2023-02-27T10:26:33.329Z,7.10
2023-02-27T10:29:13.856Z,7.70
2023-02-27T10:31:41.884Z,4.50
2023-02-27T10:34:13.333Z,4.30
2023-02-27T10:36:41.064Z,4.50
2023-02-27T10:39:11.965Z,3.20
2023-02-27T10:41:39.953Z,4.30
2023-02-27T10:44:06.829Z,5.40
2023-02-27T10:46:36.339Z,5.30
2023-02-27T10:49:13.463Z,6.00
2023-02-27T10:51:40.119Z,6.60
2023-02-27T10:54:19.191Z,5.90
2023-02-27T10:56:48.953Z,5.70
2023-02-27T10:59:20.616Z,6.20
2023-02-27T11:01:51.607Z,6.20
2023-02-27T11:04:33.514Z,6.70
2023-02-27T11:07:03.223Z,5.10
2023-02-27T11:09:34.860Z,6.10
2023-02-27T11:12:24.315Z,4.40
2023-02-27T11:14:56.694Z,2.90
2023-02-27T11:17:29.445Z,2.70
2023-02-27T11:19:57.758Z,2.70
2023-02-27T11:22:30.131Z,2.90
2023-02-27T11:25:20.639Z,2.60
2023-02-27T11:27:47.783Z,2.90
2023-02-27T11:30:29.138Z,2.80
2023-02-27T11:32:58.872Z,2.90
2023-02-27T11:35:30.398Z,2.50
2023-02-27T11:38:01.297Z,2.30
2023-02-27T11:40:39.117Z,2.20
2023-02-27T11:43:26.044Z,2.20
2023-02-27T11:46:05.887Z,2.40
2023-02-27T11:49:02.354Z,2.30
2023-02-27T11:51:38.001Z,2.50
2023-02-27T11:54:16.726Z,2.80
2023-02-27T11:56:55.697Z,2.90
2023-02-27T11:59:47.788Z,3.00
2023-02-27T12:02:22.489Z,3.10
2023-02-27T12:04:59.915Z,2.80
2023-02-27T12:07:33.791Z,2.80
2023-02-27T12:10:06.123Z,2.50
2023-02-27T12:12:45.602Z,2.70
2023-02-27T12:15:49.900Z,2.80
2023-02-27T12:18:19.858Z,3.00
2023-02-27T12:21:01.732Z,2.90
2023-02-27T12:23:38.472Z,3.10
2023-02-27T12:26:29.671Z,3.00
2023-02-27T12:29:06.060Z,3.10
2023-02-27T12:31:35.718Z,3.20
2023-02-27T12:34:29.323Z,2.90
2023-02-27T12:37:26.832Z,3.00
2023-02-27T12:39:55.942Z,3.20
2023-02-27T12:43:00.361Z,2.80
2023-02-27T12:45:58.470Z,2.80
2023-02-27T12:48:43.866Z,2.70
2023-02-27T12:51:26.281Z,2.80
2023-02-27T12:54:35.753Z,3.10
2023-02-27T12:57:12.429Z,2.90
2023-02-27T12:59:57.078Z,2.80
2023-02-27T13:02:49.426Z,3.00
2023-02-27T13:05:50.089Z,3.10
2023-02-27T13:08:38.167Z,3.00
2023-02-27T13:11:04.808Z,3.10
2023-02-27T13:13:46.061Z,3.10
2023-02-27T13:16:36.289Z,3.20
2023-02-27T13:19:15.367Z,3.00
2023-02-27T13:22:11.820Z,3.10
2023-02-27T13:24:44.745Z,3.10
2023-02-27T13:27:25.144Z,3.10
2023-02-27T13:30:04.012Z,3.20
2023-02-27T13:32:48.776Z,3.50
2023-02-27T13:35:37.564Z,3.20
2023-02-27T13:38:30.095Z,3.50
2023-02-27T13:40:56.752Z,3.50
2023-02-27T13:43:46.389Z,3.60
2023-02-27T13:46:23.914Z,3.60
2023-02-27T13:49:09.184Z,3.70
2023-02-27T13:51:35.932Z,3.40
2023-02-27T13:54:09.310Z,3.50
2023-02-27T13:56:36.256Z,3.40
2023-02-27T13:59:23.813Z,3.70
2023-02-27T14:02:03.459Z,3.50
2023-02-27T14:04:33.414Z,3.40
2023-02-27T14:07:06.449Z,3.40
2023-02-27T14:09:41.718Z,3.30
2023-02-27T14:12:46.737Z,3.00
2023-02-27T14:15:22.717Z,3.00
2023-02-27T14:17:52.530Z,3.20
2023-02-27T14:20:27.418Z,3.20
2023-02-27T14:23:21.328Z,3.40
2023-02-27T14:25:51.343Z,3.10
2023-02-27T14:28:48.384Z,3.30
2023-02-27T14:31:24.372Z,3.20
2023-02-27T14:33:56.262Z,3.00
2023-02-27T14:36:28.792Z,3.00
2023-02-27T14:38:58.044Z,3.20
2023-02-27T14:41:49.612Z,3.50
2023-02-27T14:44:27.995Z,3.40
2023-02-27T14:46:56.910Z,3.10
2023-02-27T14:49:26.061Z,2.90
2023-02-27T14:51:53.669Z,3.10
2023-02-27T14:54:25.771Z,3.10
2023-02-27T14:57:01.715Z,3.10
2023-02-27T14:59:34.116Z,3.30
2023-02-27T15:02:04.219Z,3.30
2023-02-27T15:04:33.174Z,3.00
2023-02-27T15:07:00.895Z,3.20
2023-02-27T15:09:33.278Z,3.30
2023-02-27T15:12:04.466Z,3.40
2023-02-27T15:14:36.104Z,3.40
2023-02-27T15:17:04.088Z,3.40
2023-02-27T15:19:31.413Z,3.10
2023-02-27T15:22:00.530Z,3.10
2023-02-27T15:24:49.696Z,2.90
2023-02-27T15:27:20.843Z,2.90
2023-02-27T15:29:54.890Z,3.00
2023-02-27T15:32:41.709Z,3.10
2023-02-27T15:35:20.402Z,3.20
2023-02-27T15:37:52.529Z,3.20
2023-02-27T15:40:23.271Z,3.00
2023-02-27T15:42:51.990Z,3.20
2023-02-27T15:45:25.235Z,3.00
2023-02-27T15:47:52.147Z,2.90
2023-02-27T15:50:18.801Z,2.80
2023-02-27T15:52:55.190Z,2.80
2023-02-27T15:55:41.227Z,2.80
2023-02-27T15:58:20.914Z,2.70
2023-02-27T16:00:47.800Z,2.70
2023-02-27T16:03:22.154Z,2.70
2023-02-27T16:05:52.414Z,2.70
2023-02-27T16:08:21.050Z,2.60
2023-02-27T16:10:48.304Z,2.60
2023-02-27T16:13:38.844Z,2.60
2023-02-27T16:16:22.278Z,2.50
2023-02-27T16:18:52.144Z,2.50
2023-02-27T16:21:21.402Z,2.80
2023-02-27T16:23:48.571Z,2.60
2023-02-27T16:26:24.708Z,2.50
2023-02-27T16:28:55.029Z,2.50
2023-02-27T16:31:37.688Z,2.40
2023-02-27T16:34:13.930Z,2.40
2023-02-27T16:36:43.057Z,2.40
2023-02-27T16:39:13.503Z,2.30
2023-02-27T16:41:40.253Z,2.30
2023-02-27T16:44:06.975Z,2.20
2023-02-27T16:46:33.632Z,2.10
2023-02-27T16:49:17.595Z,2.10
2023-02-27T16:51:46.651Z,2.10
2023-02-27T16:54:14.046Z,2.30
2023-02-27T16:56:41.400Z,1.90
2023-02-27T16:59:34.646Z,1.80
2023-02-27T17:02:04.401Z,1.80
2023-02-27T17:04:31.431Z,1.70
2023-02-27T17:07:00.261Z,1.60
2023-02-27T17:09:28.217Z,1.50
2023-02-27T17:11:55.971Z,1.50
2023-02-27T17:14:23.497Z,1.60
2023-02-27T17:16:50.388Z,1.50
2023-02-27T17:19:17.483Z,1.40
2023-02-27T17:21:44.270Z,1.20
2023-02-27T17:24:11.322Z,1.20
2023-02-27T17:26:38.264Z,1.10
2023-02-27T17:29:05.315Z,1.00
2023-02-27T17:31:32.244Z,1.00
2023-02-27T17:33:59.019Z,1.00
2023-02-27T17:36:26.283Z,1.10
2023-02-27T17:38:58.165Z,1.20
2023-02-27T17:41:24.964Z,1.10
2023-02-27T17:43:56.501Z,1.00
2023-02-27T17:46:24.413Z,0.80
2023-02-27T17:48:51.782Z,0.90
2023-02-27T17:51:19.173Z,0.70
2023-02-27T17:53:46.187Z,0.60
2023-02-27T17:56:13.875Z,0.70
2023-02-27T17:58:41.603Z,0.70
2023-02-27T18:01:14.318Z,0.70
2023-02-27T18:03:41.461Z,0.80
2023-02-27T18:06:08.821Z,0.70
2023-02-27T18:08:35.761Z,0.90
2023-02-27T18:11:02.711Z,0.90
2023-02-27T18:13:30.012Z,0.90
2023-02-27T18:15:57.400Z,0.80
2023-02-27T18:18:24.380Z,0.80
2023-02-27T18:21:26.653Z,0.80
2023-02-27T18:23:53.402Z,0.60
2023-02-27T18:26:31.462Z,0.60
2023-02-27T18:29:00.801Z,0.50
2023-02-27T18:31:33.781Z,0.50
2023-02-27T18:34:01.456Z,0.50
2023-02-27T18:36:29.559Z,0.80
2023-02-27T18:38:56.612Z,0.70
2023-02-27T18:41:23.466Z,0.70
2023-02-27T18:43:50.143Z,0.40
2023-02-27T18:46:17.255Z,0.40
2023-02-27T18:48:44.860Z,0.40
2023-02-27T18:51:14.606Z,0.50
2023-02-27T18:53:47.326Z,0.50
2023-02-27T18:56:16.571Z,0.40
2023-02-27T18:58:43.464Z,0.30
2023-02-27T19:01:22.844Z,0.40
2023-02-27T19:03:50.181Z,0.40
2023-02-27T19:06:17.712Z,0.30
2023-02-27T19:08:45.000Z,0.30
2023-02-27T19:11:20.277Z,0.30
2023-02-27T19:13:47.460Z,0.40
2023-02-27T19:16:14.283Z,0.30
2023-02-27T19:18:40.928Z,0.30
2023-02-27T19:21:07.598Z,0.40
2023-02-27T19:23:36.118Z,0.40
2023-02-27T19:26:03.095Z,0.40
2023-02-27T19:28:29.773Z,0.50
2023-02-27T19:30:58.355Z,0.60
2023-02-27T19:33:25.320Z,0.50
2023-02-27T19:35:52.240Z,0.40
2023-02-27T19:38:19.080Z,0.30
2023-02-27T19:40:45.750Z,0.50
2023-02-27T19:43:15.231Z,0.40
2023-02-27T19:45:42.485Z,0.40
2023-02-27T19:48:11.297Z,0.50
2023-02-27T19:50:40.065Z,0.30
2023-02-27T19:53:07.104Z,0.50
2023-02-27T19:55:33.818Z,0.50
2023-02-27T19:58:00.535Z,0.50
2023-02-27T20:00:27.408Z,0.40
2023-02-27T20:02:54.073Z,0.40
2023-02-27T20:05:21.156Z,0.40
2023-02-27T20:07:48.449Z,0.30
2023-02-27T20:10:15.785Z,0.30
2023-02-27T20:12:42.798Z,0.30
2023-02-27T20:15:11.701Z,0.30
2023-02-27T20:17:39.768Z,0.20
2023-02-27T20:20:07.090Z,0.20
2023-02-27T20:22:33.986Z,0.20
2023-02-27T20:25:00.897Z,0.20
2023-02-27T20:27:28.038Z,0.10
2023-02-27T20:29:55.989Z,0.00
2023-02-27T20:32:24.114Z,0.10
2023-02-27T20:34:52.096Z,0.20
2023-02-27T20:37:19.820Z,0.70
2023-02-27T20:39:46.590Z,0.10
2023-02-27T20:42:14.085Z,0.20
2023-02-27T20:44:42.071Z,0.30
2023-02-27T20:47:09.398Z,0.20
2023-02-27T20:49:36.692Z,0.20
2023-02-27T20:52:03.566Z,0.30
2023-02-27T20:54:32.567Z,0.30
2023-02-27T20:56:59.243Z,0.30
2023-02-27T20:59:26.202Z,0.20
2023-02-27T21:01:53.947Z,0.30
2023-02-27T21:04:21.553Z,0.40
2023-02-27T21:06:50.366Z,0.50
2023-02-27T21:09:17.136Z,0.50
2023-02-27T21:11:43.768Z,0.40
2023-02-27T21:14:11.580Z,0.50
2023-02-27T21:16:39.894Z,0.50
2023-02-27T21:19:07.318Z,0.60
2023-02-27T21:21:35.537Z,0.60
2023-02-27T21:24:02.542Z,0.50
2023-02-27T21:26:35.580Z,0.50
2023-02-27T21:29:09.749Z,0.40
2023-02-27T21:31:38.293Z,0.40
2023-02-27T21:34:11.690Z,0.40
2023-02-27T21:36:42.858Z,0.30
2023-02-27T21:39:16.486Z,0.30
2023-02-27T21:41:46.130Z,0.20
2023-02-27T21:44:16.774Z,0.20
2023-02-27T21:46:45.340Z,0.10
2023-02-27T21:49:20.745Z,0.10
2023-02-27T21:51:47.469Z,0.10
2023-02-27T21:54:15.825Z,0.10
2023-02-27T21:56:44.400Z,0.00
2023-02-27T21:59:11.577Z,0.00
2023-02-27T22:01:38.768Z,0.10
2023-02-27T22:04:06.120Z,0.20
2023-02-27T22:06:34.567Z,0.10
2023-02-27T22:09:05.221Z,0.00
2023-02-27T22:11:34.049Z,0.00
2023-02-27T22:14:01.399Z,0.10
2023-02-27T22:16:28.051Z,-0.10
2023-02-27T22:18:54.743Z,-0.10
2023-02-27T22:21:25.149Z,-0.20
2023-02-27T22:23:52.441Z,-0.30
2023-02-27T22:26:22.672Z,-0.30
2023-02-27T22:28:52.467Z,-0.20
2023-02-27T22:31:22.065Z,-0.30
2023-02-27T22:33:52.913Z,-0.40
2023-02-27T22:36:25.604Z,-0.50
2023-02-27T22:38:52.834Z,-0.50
2023-02-27T22:41:26.555Z,-0.70
2023-02-27T22:43:54.303Z,-0.80
2023-02-27T22:46:26.491Z,-0.80
2023-02-27T22:48:57.649Z,-0.70
2023-02-27T22:51:25.449Z,-0.70
2023-02-27T22:53:52.133Z,-0.70
2023-02-27T22:56:18.765Z,-0.70
2023-02-27T22:58:45.722Z,-0.70
2023-02-27T23:01:22.644Z,-0.60
2023-02-27T23:03:52.381Z,-0.60
2023-02-27T23:06:25.049Z,-0.70
2023-02-27T23:08:52.072Z,-0.90
2023-02-27T23:11:19.783Z,-0.90
2023-02-27T23:13:46.856Z,-0.90
2023-02-27T23:16:13.876Z,-0.80
2023-02-27T23:18:53.931Z,-0.80
2023-02-27T23:21:24.018Z,-0.90
2023-02-27T23:23:53.786Z,-1.00
2023-02-27T23:26:20.865Z,-1.00
2023-02-27T23:28:47.519Z,-0.90
2023-02-27T23:31:14.208Z,-0.90
2023-02-27T23:33:41.055Z,-0.90
2023-02-27T23:36:08.021Z,-1.00
2023-02-27T23:38:34.756Z,-0.90
2023-02-27T23:41:06.436Z,-1.10
2023-02-27T23:43:33.461Z,-1.20
2023-02-27T23:46:09.672Z,-1.10
2023-02-27T23:48:36.870Z,-1.20
2023-02-27T23:51:05.438Z,-1.20
2023-02-27T23:53:33.624Z,-1.30
2023-02-27T23:56:00.256Z,-1.30
2023-02-27T23:58:26.986Z,-1.30
